Time;durP1;ratioP1;P1;durP2;ratioP2;P2;SDS_P1;SDS_P2;PMS_P1;PMS_P2;Temp;Humidity;BMP_temperature;BMP_pressure;BME280_temperature;BME280_humidity;BME280_pressure;Samples;Min_cycle;Max_cycle;Signal;HPM_P1;HPM_P2
2022/07/29 00:00:50;;;;;;;9.98;9.25;;;;;;;21.20;nan;95186.97;5015310;28;20232;-69
2022/07/29 00:03:16;;;;;;;9.70;8.73;;;;;;;21.33;nan;95188.53;5014364;28;20212;-71
2022/07/29 00:05:43;;;;;;;9.45;8.75;;;;;;;21.48;nan;95196.94;5014498;28;20222;-71
2022/07/29 00:08:10;;;;;;;9.75;8.88;;;;;;;21.87;nan;95198.28;5017513;28;20195;-69
2022/07/29 00:10:37;;;;;;;10.00;9.10;;;;;;;22.52;nan;95199.38;5017109;28;20206;-71
2022/07/29 00:13:04;;;;;;;9.52;8.40;;;;;;;22.88;nan;95199.06;5014319;28;20212;-72
2022/07/29 00:15:32;;;;;;;9.50;8.73;;;;;;;22.63;nan;95191.56;5014041;28;20234;-70
2022/07/29 00:17:59;;;;;;;10.73;9.82;;;;;;;22.25;nan;95198.00;5012781;28;20238;-69
2022/07/29 00:20:26;;;;;;;13.32;11.93;;;;;;;22.33;nan;95198.19;5016279;28;20762;-69
2022/07/29 00:22:53;;;;;;;19.55;17.27;;;;;;;22.67;nan;95195.56;5015188;28;20207;-70
2022/07/29 00:25:20;;;;;;;11.93;10.52;;;;;;;22.55;nan;95196.53;5016517;28;20682;-69
2022/07/29 00:27:47;;;;;;;11.48;10.27;;;;;;;22.67;nan;95198.16;5015056;28;20215;-71
2022/07/29 00:30:14;;;;;;;19.83;15.10;;;;;;;23.06;nan;95200.19;5013879;28;20211;-69
2022/07/29 00:32:42;;;;;;;17.55;15.85;;;;;;;23.35;nan;95199.59;5010306;28;20208;-69
2022/07/29 00:37:53;;;;;;;17.95;13.73;;;;;;;23.27;nan;95208.00;5012025;28;20758;-70
2022/07/29 00:40:20;;;;;;;13.75;12.40;;;;;;;23.20;nan;95221.59;5013768;28;20264;-71
2022/07/29 00:42:49;;;;;;;17.23;14.40;;;;;;;23.05;nan;95208.91;5012193;28;20205;-69
2022/07/29 00:45:17;;;;;;;14.10;12.85;;;;;;;23.00;nan;95205.88;5013262;28;20211;-71
2022/07/29 00:47:46;;;;;;;13.07;11.98;;;;;;;22.82;nan;95206.50;5016376;28;20274;-70
2022/07/29 00:50:14;;;;;;;14.30;12.98;;;;;;;22.83;nan;95206.38;5012598;28;20805;-70
2022/07/29 00:52:43;;;;;;;15.52;13.60;;;;;;;22.91;nan;95205.78;5015276;28;20813;-70
2022/07/29 00:55:12;;;;;;;19.67;15.85;;;;;;;22.96;nan;95214.84;5014882;28;20221;-71
2022/07/29 00:57:41;;;;;;;20.55;15.15;;;;;;;23.06;nan;95207.97;5016368;28;20207;-69
2022/07/29 01:00:10;;;;;;;20.92;18.67;;;;;;;23.00;nan;95203.28;5012816;28;20983;-70
2022/07/29 01:02:37;;;;;;;20.73;17.17;;;;;;;22.98;nan;95202.59;5011828;28;20832;-70
2022/07/29 01:05:07;;;;;;;17.52;15.25;;;;;;;22.97;nan;95197.53;5012865;28;20228;-70
2022/07/29 01:07:35;;;;;;;14.90;13.43;;;;;;;22.71;nan;95209.94;5013545;28;20204;-71
2022/07/29 01:10:03;;;;;;;13.05;11.95;;;;;;;22.86;nan;95198.38;5014818;28;20281;-70
2022/07/29 01:12:32;;;;;;;20.63;14.32;;;;;;;22.68;nan;95190.28;5014857;28;20230;-70
2022/07/29 01:15:00;;;;;;;12.95;11.73;;;;;;;22.49;nan;95184.06;5013261;28;20223;-70
2022/07/29 01:17:33;;;;;;;16.27;13.65;;;;;;;22.49;nan;95181.50;5011684;28;20676;-66
2022/07/29 01:20:08;;;;;;;21.20;18.20;;;;;;;22.17;nan;95189.97;5014421;28;20208;-70
2022/07/29 01:22:54;;;;;;;17.23;15.52;;;;;;;22.32;nan;95183.59;5012312;28;20207;-69
2022/07/29 01:25:41;;;;;;;16.40;14.80;;;;;;;22.40;nan;95175.25;5013766;28;20199;-70
2022/07/29 01:28:34;;;;;;;12.95;11.48;;;;;;;22.33;nan;95169.72;5002681;28;20208;-70
2022/07/29 01:31:03;;;;;;;12.57;11.32;;;;;;;22.23;nan;95168.81;5012501;28;20241;-72
2022/07/29 01:33:51;;;;;;;12.40;11.05;;;;;;;22.30;nan;95169.97;5014549;28;20242;-71
2022/07/29 01:36:24;;;;;;;13.80;12.45;;;;;;;22.38;nan;95167.59;5013950;28;20230;-71
2022/07/29 01:38:58;;;;;;;15.77;12.38;;;;;;;22.19;nan;95162.22;5015303;28;20221;-73
2022/07/29 01:41:30;;;;;;;20.00;13.93;;;;;;;21.51;nan;95176.03;5015755;28;20206;-73
2022/07/29 01:44:02;;;;;;;14.13;12.68;;;;;;;20.92;nan;95173.47;5014090;28;20744;-73
2022/07/29 01:46:33;;;;;;;13.43;12.07;;;;;;;20.49;nan;95164.56;5016325;28;20210;-73
2022/07/29 01:49:06;;;;;;;15.60;13.43;;;;;;;20.27;nan;95170.38;5015456;28;20214;-73
2022/07/29 01:51:41;;;;;;;16.42;13.57;;;;;;;20.68;nan;95176.06;5017140;28;20239;-75
2022/07/29 01:54:13;;;;;;;18.35;14.02;;;;;;;21.32;nan;95170.56;5016044;28;20207;-70
2022/07/29 01:56:43;;;;;;;12.68;11.48;;;;;;;21.30;nan;95160.34;5015146;28;20743;-73
2022/07/29 01:59:12;;;;;;;13.75;12.43;;;;;;;21.08;nan;95154.25;5013119;28;20256;-67
2022/07/29 02:01:41;;;;;;;13.52;12.20;;;;;;;21.45;nan;95160.97;5014600;28;20748;-70
2022/07/29 02:04:12;;;;;;;12.57;11.57;;;;;;;21.05;nan;95157.88;5012441;28;20314;-70
2022/07/29 02:06:41;;;;;;;13.60;12.35;;;;;;;20.84;nan;95160.28;5015702;28;20736;-70
2022/07/29 02:09:11;;;;;;;12.07;11.02;;;;;;;20.71;nan;95169.84;5013589;28;20216;-70
2022/07/29 02:11:39;;;;;;;12.45;11.45;;;;;;;20.66;nan;95159.00;5013899;28;20628;-71
2022/07/29 02:14:08;;;;;;;15.65;11.70;;;;;;;20.86;nan;95153.22;5014597;28;20676;-72
2022/07/29 02:16:40;;;;;;;14.43;11.88;;;;;;;21.28;nan;95157.03;5016388;28;20305;-72
2022/07/29 02:19:09;;;;;;;13.10;11.98;;;;;;;21.52;nan;95148.41;5012979;28;20200;-71
2022/07/29 02:21:36;;;;;;;12.48;11.25;;;;;;;21.46;nan;95147.09;5013297;28;20643;-72
2022/07/29 02:24:05;;;;;;;14.35;11.60;;;;;;;21.38;nan;95144.25;5013259;28;20200;-67
2022/07/29 02:26:34;;;;;;;12.32;11.07;;;;;;;21.76;nan;95153.50;5011481;28;20208;-69
2022/07/29 02:29:02;;;;;;;11.60;10.70;;;;;;;21.86;nan;95149.25;5011452;28;20208;-70
2022/07/29 02:31:33;;;;;;;13.05;11.13;;;;;;;21.26;nan;95145.19;5014275;28;20215;-70
2022/07/29 02:34:02;;;;;;;12.93;11.43;;;;;;;21.28;nan;95132.97;5013954;28;20215;-69
2022/07/29 02:36:30;;;;;;;15.05;11.75;;;;;;;21.77;nan;95135.28;5008979;28;20228;-69
2022/07/29 02:39:00;;;;;;;13.02;11.65;;;;;;;21.90;nan;95125.63;5009223;28;20218;-68
2022/07/29 02:41:30;;;;;;;11.52;10.35;;;;;;;21.52;nan;95135.50;5009931;28;20203;-68
2022/07/29 02:44:06;;;;;;;11.48;10.55;;;;;;;20.95;nan;95137.06;5008921;28;20289;-69
2022/07/29 02:46:35;;;;;;;13.18;11.40;;;;;;;21.16;nan;95133.84;5008402;28;20199;-70
2022/07/29 02:49:10;;;;;;;11.20;10.40;;;;;;;21.64;nan;95134.53;5010154;28;20748;-69
2022/07/29 02:51:46;;;;;;;11.98;10.73;;;;;;;21.92;nan;95128.09;5012012;28;20230;-68
2022/07/29 02:54:22;;;;;;;11.82;10.60;;;;;;;22.10;nan;95141.38;5012687;28;20207;-71
2022/07/29 02:56:52;;;;;;;13.30;11.65;;;;;;;21.98;nan;95132.78;5012901;28;20231;-70
2022/07/29 02:59:25;;;;;;;13.05;11.75;;;;;;;21.92;nan;95130.69;5011926;28;20211;-70
2022/07/29 03:01:55;;;;;;;12.93;11.82;;;;;;;21.90;nan;95137.72;5013452;28;20222;-69
2022/07/29 03:04:28;;;;;;;12.40;11.40;;;;;;;21.73;nan;95128.69;5012975;28;20848;-68
2022/07/29 03:06:56;;;;;;;15.13;13.32;;;;;;;21.88;nan;95131.84;5012580;28;20211;-68
2022/07/29 03:09:24;;;;;;;14.45;13.18;;;;;;;21.68;nan;95128.19;5014080;28;20220;-71
2022/07/29 03:11:51;;;;;;;15.27;13.90;;;;;;;21.36;nan;95126.28;5016161;28;20538;-70
2022/07/29 03:14:19;;;;;;;15.13;13.65;;;;;;;21.18;nan;95127.63;5018108;28;20320;-70
2022/07/29 03:16:46;;;;;;;15.68;14.25;;;;;;;20.99;nan;95133.34;5016049;28;20242;-72
2022/07/29 03:19:13;;;;;;;16.98;14.38;;;;;;;21.22;nan;95136.84;5016021;28;20192;-72
2022/07/29 03:21:42;;;;;;;15.68;14.25;;;;;;;21.21;nan;95134.38;5016370;28;20207;-71
2022/07/29 03:24:09;;;;;;;27.48;16.75;;;;;;;21.06;nan;95144.03;5017676;28;20206;-70
2022/07/29 03:26:36;;;;;;;16.10;14.23;;;;;;;21.33;nan;95133.44;5016367;28;20199;-71
2022/07/29 03:29:03;;;;;;;15.93;13.77;;;;;;;21.48;nan;95134.91;5017734;28;20234;-70
2022/07/29 03:31:29;;;;;;;15.30;13.70;;;;;;;21.64;nan;95135.38;5017973;28;21032;-70
2022/07/29 03:33:57;;;;;;;14.75;13.25;;;;;;;21.41;nan;95141.44;5017315;28;20222;-71
2022/07/29 03:36:24;;;;;;;18.00;14.48;;;;;;;21.31;nan;95140.47;5016574;28;20227;-70
2022/07/29 03:38:54;;;;;;;16.48;13.85;;;;;;;20.92;nan;95145.03;5015793;28;20211;-69
2022/07/29 03:41:24;;;;;;;18.10;15.25;;;;;;;20.80;nan;95145.91;5014598;28;21923;-69
2022/07/29 03:43:52;;;;;;;15.98;14.32;;;;;;;20.98;nan;95142.03;5014817;28;20741;-69
2022/07/29 03:46:23;;;;;;;15.43;13.15;;;;;;;21.59;nan;95141.81;5015351;28;20212;-69
2022/07/29 03:48:53;;;;;;;15.18;12.85;;;;;;;21.37;nan;95145.19;5018076;28;20265;-72
2022/07/29 03:51:20;;;;;;;16.42;14.20;;;;;;;21.55;nan;95146.41;5015300;28;21973;-71
2022/07/29 03:53:47;;;;;;;13.82;12.50;;;;;;;21.58;nan;95151.34;5018079;28;20214;-70
2022/07/29 03:56:17;;;;;;;13.55;12.40;;;;;;;21.37;nan;95158.13;5018580;28;20233;-72
2022/07/29 03:58:45;;;;;;;19.63;15.82;;;;;;;21.15;nan;95155.44;5019835;28;20204;-72
2022/07/29 04:01:13;;;;;;;28.17;24.80;;;;;;;21.49;nan;95157.22;5019572;28;20204;-71
2022/07/29 04:03:41;;;;;;;20.35;17.40;;;;;;;22.01;nan;95163.66;5017637;28;20199;-72
2022/07/29 04:06:08;;;;;;;20.48;16.15;;;;;;;21.99;nan;95160.31;5003789;28;20227;-71
2022/07/29 04:08:35;;;;;;;21.25;18.55;;;;;;;22.39;nan;95153.72;5017900;28;20262;-71
2022/07/29 04:11:02;;;;;;;20.08;17.88;;;;;;;22.56;nan;95156.72;5017428;28;20199;-71
2022/07/29 04:13:30;;;;;;;17.10;13.20;;;;;;;22.02;nan;95160.13;5019093;28;21684;-72
2022/07/29 04:15:57;;;;;;;13.32;12.05;;;;;;;21.84;nan;95162.31;5017006;28;20232;-71
2022/07/29 04:18:24;;;;;;;12.32;11.10;;;;;;;21.98;nan;95150.91;5016880;28;20937;-74
2022/07/29 04:20:51;;;;;;;12.98;11.65;;;;;;;22.71;nan;95147.75;5016345;28;20207;-71
2022/07/29 04:23:18;;;;;;;13.43;12.00;;;;;;;23.13;nan;95155.63;5017990;28;20631;-71
2022/07/29 04:25:44;;;;;;;14.02;12.60;;;;;;;23.01;nan;95152.28;5014873;28;20265;-69
2022/07/29 04:28:11;;;;;;;13.55;12.35;;;;;;;22.66;nan;95149.88;5017469;28;21189;-70
2022/07/29 04:30:40;;;;;;;14.70;12.88;;;;;;;22.76;nan;95157.75;5015543;28;20302;-71
2022/07/29 04:33:08;;;;;;;16.23;12.65;;;;;;;22.80;nan;95159.97;5016462;28;20651;-73
2022/07/29 04:35:36;;;;;;;13.82;12.50;;;;;;;23.20;nan;95164.56;5017218;28;20211;-71
2022/07/29 04:38:03;;;;;;;12.60;11.30;;;;;;;24.08;nan;95170.13;5015917;28;21089;-70
2022/07/29 04:40:30;;;;;;;27.30;20.15;;;;;;;24.55;nan;95167.84;5013938;28;20587;-69
2022/07/29 04:42:57;;;;;;;25.65;21.10;;;;;;;24.94;nan;95166.94;5013043;28;20643;-72
2022/07/29 04:45:24;;;;;;;14.75;13.18;;;;;;;25.32;nan;95165.31;5016541;28;20203;-71
2022/07/29 04:47:52;;;;;;;17.88;15.30;;;;;;;25.33;nan;95164.38;5014206;28;20289;-70
2022/07/29 04:50:19;;;;;;;36.30;24.45;;;;;;;24.39;nan;95171.78;5015588;28;20297;-70
2022/07/29 04:52:46;;;;;;;20.08;17.85;;;;;;;24.28;nan;95179.66;5015335;28;20211;-69
2022/07/29 04:55:13;;;;;;;21.65;17.15;;;;;;;24.12;nan;95183.69;5013532;28;20674;-68
2022/07/29 04:57:40;;;;;;;19.85;14.52;;;;;;;24.54;nan;95176.59;5014222;28;20665;-70
2022/07/29 05:00:09;;;;;;;17.98;13.00;;;;;;;24.61;nan;95172.50;5013855;28;20301;-71
2022/07/29 05:02:35;;;;;;;13.23;12.02;;;;;;;25.08;nan;95171.75;5015539;28;20214;-71
2022/07/29 05:05:04;;;;;;;14.82;12.80;;;;;;;25.04;nan;95178.19;5013518;28;20286;-70
2022/07/29 05:07:31;;;;;;;13.90;12.50;;;;;;;25.19;nan;95170.00;4999329;28;20199;-69
2022/07/29 05:09:58;;;;;;;14.05;12.70;;;;;;;25.08;nan;95173.53;5013681;28;20212;-70
2022/07/29 05:12:24;;;;;;;15.77;12.88;;;;;;;25.46;nan;95167.50;5011174;28;20219;-70
2022/07/29 05:14:51;;;;;;;13.75;12.35;;;;;;;26.05;nan;95179.44;5013195;28;20210;-70
2022/07/29 05:17:18;;;;;;;13.02;11.73;;;;;;;26.28;nan;95188.53;5013470;28;21048;-70
2022/07/29 05:19:45;;;;;;;12.88;11.73;;;;;;;27.32;nan;95182.03;5012071;28;20196;-71
2022/07/29 05:22:13;;;;;;;14.10;12.70;;;;;;;28.34;nan;95178.81;5013242;28;20203;-71
2022/07/29 05:24:40;;;;;;;13.73;12.20;;;;;;;27.86;nan;95180.16;5001312;28;20218;-71
2022/07/29 05:27:07;;;;;;;18.08;13.48;;;;;;;28.11;nan;95181.13;5012798;28;20590;-70
2022/07/29 05:29:34;;;;;;;13.93;11.05;;;;;;;30.35;nan;95168.63;5011743;28;20215;-71
2022/07/29 05:32:00;;;;;;;14.20;12.77;;;;;;;29.90;nan;95174.47;5012388;28;20751;-71
2022/07/29 05:34:27;;;;;;;15.05;11.57;;;;;;;29.79;nan;95175.63;5015490;28;20207;-70
2022/07/29 05:36:54;;;;;;;14.98;11.68;;;;;;;29.34;nan;95172.69;5012894;28;20242;-71
2022/07/29 05:39:22;;;;;;;12.65;11.20;;;;;;;28.57;nan;95174.66;5013572;28;20219;-70
2022/07/29 05:41:49;;;;;;;15.30;12.23;;;;;;;28.75;nan;95166.69;5015319;28;20212;-71
2022/07/29 05:44:16;;;;;;;12.77;11.50;;;;;;;30.42;nan;95177.47;5015121;28;20211;-71
2022/07/29 05:46:42;;;;;;;13.73;12.10;;;;;;;32.13;nan;95174.50;5016757;28;20285;-70
2022/07/29 05:49:09;;;;;;;12.30;11.38;;;;;;;32.90;nan;95184.63;5015683;28;20212;-71
2022/07/29 05:51:36;;;;;;;13.73;11.98;;;;;;;34.27;nan;95178.13;5012430;28;21664;-69
2022/07/29 05:54:03;;;;;;;15.73;12.00;;;;;;;35.37;nan;95178.00;5014551;28;20249;-72
2022/07/29 05:56:32;;;;;;;14.35;12.27;;;;;;;36.90;nan;95200.59;5012679;28;20238;-72
2022/07/29 05:58:59;;;;;;;12.82;11.60;;;;;;;38.32;nan;95183.34;5011856;28;20261;-71
2022/07/29 06:01:25;;;;;;;13.43;11.38;;;;;;;38.93;nan;95183.25;5013318;28;20207;-72
2022/07/29 06:03:52;;;;;;;14.07;12.75;;;;;;;37.97;nan;95173.22;5012761;28;20208;-70
2022/07/29 06:06:19;;;;;;;14.70;12.25;;;;;;;37.75;nan;95180.75;5014529;28;20226;-69
2022/07/29 06:08:46;;;;;;;12.15;11.07;;;;;;;37.79;nan;95176.66;5014954;28;20223;-70
2022/07/29 06:11:13;;;;;;;8.02;7.43;;;;;;;36.69;nan;95180.50;5012227;28;20224;-72
2022/07/29 06:13:41;;;;;;;11.65;7.50;;;;;;;37.03;nan;95181.19;5014196;28;20214;-70
2022/07/29 06:16:08;;;;;;;7.78;7.03;;;;;;;36.33;nan;95185.53;5013155;28;20211;-70
2022/07/29 06:18:35;;;;;;;6.55;5.93;;;;;;;35.82;nan;95178.25;5013445;28;20237;-69
2022/07/29 06:21:01;;;;;;;6.80;6.40;;;;;;;35.62;nan;95178.22;5012552;28;20215;-71
2022/07/29 06:23:28;;;;;;;6.72;6.20;;;;;;;35.35;nan;95187.13;5012142;28;20199;-71
2022/07/29 06:25:55;;;;;;;7.38;5.68;;;;;;;34.29;nan;95181.41;5011508;28;20787;-71
2022/07/29 06:28:22;;;;;;;6.38;5.97;;;;;;;33.23;nan;95181.50;5012475;28;20297;-71
2022/07/29 06:30:50;;;;;;;5.25;4.85;;;;;;;32.61;nan;95179.38;5011963;28;20588;-71
2022/07/29 06:33:20;;;;;;;6.75;6.13;;;;;;;29.78;nan;95184.47;5009874;28;20265;-71
2022/07/29 06:35:47;;;;;;;8.48;5.25;;;;;;;29.90;nan;95181.53;5011833;28;20204;-71
2022/07/29 06:38:14;;;;;;;5.38;5.07;;;;;;;30.25;nan;95173.25;5012512;28;20602;-70
2022/07/29 06:41:01;;;;;;;5.30;4.38;;;;;;;29.99;nan;95177.91;5011869;28;20215;-71
2022/07/29 06:43:31;;;;;;;5.22;4.55;;;;;;;30.00;nan;95185.59;5010094;28;20264;-71
2022/07/29 06:46:01;;;;;;;4.80;4.40;;;;;;;30.23;nan;95169.97;5010299;28;20208;-69
2022/07/29 06:48:29;;;;;;;5.18;4.78;;;;;;;30.79;nan;95176.00;5011160;28;20970;-70
2022/07/29 06:50:55;;;;;;;10.02;4.55;;;;;;;31.11;nan;95175.84;5013449;28;20234;-70
2022/07/29 06:53:22;;;;;;;5.95;4.97;;;;;;;30.46;nan;95176.13;5011072;28;20586;-69
2022/07/29 06:55:49;;;;;;;6.55;5.20;;;;;;;29.94;nan;95174.97;5014350;28;20211;-69
2022/07/29 06:58:17;;;;;;;5.00;4.70;;;;;;;30.59;nan;95174.81;5010929;28;20241;-70
2022/07/29 07:00:45;;;;;;;4.50;4.10;;;;;;;29.56;nan;95169.44;5011093;28;20203;-70
2022/07/29 07:03:13;;;;;;;4.95;4.45;;;;;;;29.44;nan;95170.78;5012758;28;20326;-70
2022/07/29 07:05:40;;;;;;;5.07;4.78;;;;;;;29.70;nan;95166.13;5011770;28;20332;-69
2022/07/29 07:08:07;;;;;;;5.25;4.85;;;;;;;29.72;nan;95165.97;5009935;28;20200;-69
2022/07/29 07:10:34;;;;;;;4.95;4.40;;;;;;;30.01;nan;95155.81;5013609;28;20353;-72
2022/07/29 07:13:02;;;;;;;4.43;4.07;;;;;;;30.56;nan;95170.72;5011541;28;20204;-70
2022/07/29 07:15:28;;;;;;;4.47;4.20;;;;;;;30.24;nan;95163.75;5010613;28;20211;-71
2022/07/29 07:17:55;;;;;;;6.10;4.57;;;;;;;30.56;nan;95160.22;5012106;28;20227;-71
2022/07/29 07:20:23;;;;;;;4.22;3.90;;;;;;;30.35;nan;95158.16;5010915;28;20748;-70
2022/07/29 07:22:50;;;;;;;6.18;3.95;;;;;;;30.63;nan;95161.19;5016256;28;20581;-69
2022/07/29 07:25:17;;;;;;;6.60;4.40;;;;;;;29.61;nan;95163.72;5012151;28;20215;-70
2022/07/29 07:27:45;;;;;;;4.95;4.55;;;;;;;29.61;nan;95161.91;5012373;28;20208;-70
2022/07/29 07:30:12;;;;;;;4.65;4.25;;;;;;;29.70;nan;95158.28;5012412;28;20656;-70
2022/07/29 07:32:39;;;;;;;5.38;4.88;;;;;;;30.30;nan;95160.47;5012730;28;20224;-70
2022/07/29 07:35:07;;;;;;;4.38;3.92;;;;;;;29.64;nan;95153.72;5014288;28;20208;-69
2022/07/29 07:37:36;;;;;;;4.47;4.05;;;;;;;29.38;nan;95156.50;5011531;28;20229;-70
2022/07/29 07:40:03;;;;;;;4.35;3.95;;;;;;;29.07;nan;95164.16;5010469;28;21111;-71
2022/07/29 07:42:30;;;;;;;4.03;3.72;;;;;;;29.13;nan;95154.84;5010194;28;20214;-70
2022/07/29 07:44:57;;;;;;;4.28;4.07;;;;;;;28.95;nan;95173.31;5011717;28;20207;-71
2022/07/29 07:47:24;;;;;;;12.02;4.57;;;;;;;29.08;nan;95173.66;5011810;28;20212;-71
2022/07/29 07:49:51;;;;;;;4.65;3.92;;;;;;;29.26;nan;95151.75;5011065;28;21866;-70
2022/07/29 07:52:20;;;;;;;4.22;3.83;;;;;;;28.98;nan;95167.75;5013062;28;20207;-70
2022/07/29 07:54:48;;;;;;;5.68;4.05;;;;;;;28.87;nan;95149.75;5013588;28;20277;-70
2022/07/29 07:57:16;;;;;;;4.43;4.13;;;;;;;29.05;nan;95162.69;5016543;28;20234;-70
2022/07/29 07:59:43;;;;;;;4.38;4.15;;;;;;;29.38;nan;95153.06;5013747;28;20712;-72
2022/07/29 08:02:10;;;;;;;4.38;4.05;;;;;;;29.16;nan;95156.34;5014500;28;20203;-69
2022/07/29 08:04:40;;;;;;;4.72;4.07;;;;;;;29.21;nan;95157.44;5015185;28;20330;-72
2022/07/29 08:07:07;;;;;;;5.82;4.10;;;;;;;29.31;nan;95144.22;5015846;28;20345;-71
2022/07/29 08:09:34;;;;;;;4.63;4.32;;;;;;;28.76;nan;95153.44;5016233;28;20203;-70
2022/07/29 08:12:05;;;;;;;4.72;4.32;;;;;;;28.96;nan;95143.53;5016119;28;20214;-70
2022/07/29 08:14:32;;;;;;;4.85;4.43;;;;;;;28.84;nan;95154.47;5016076;28;20199;-71
2022/07/29 08:16:59;;;;;;;5.43;5.03;;;;;;;28.65;nan;95150.31;5015588;28;20227;-71
2022/07/29 08:19:26;;;;;;;11.57;4.75;;;;;;;28.86;nan;95165.59;5017572;28;20199;-71
2022/07/29 08:21:53;;;;;;;3.95;3.65;;;;;;;28.47;nan;95152.22;5014503;28;20316;-70
2022/07/29 08:27:05;;;;;;;4.93;4.65;;;;;;;28.92;nan;95152.72;5014564;28;20211;-69
2022/07/29 08:29:32;;;;;;;5.55;3.63;;;;;;;28.71;nan;95160.13;5011932;28;20208;-71
2022/07/29 08:31:59;;;;;;;3.90;3.60;;;;;;;28.56;nan;95166.97;5015607;28;20215;-71
2022/07/29 08:34:26;;;;;;;4.70;4.15;;;;;;;28.42;nan;95150.91;5015138;28;20220;-71
2022/07/29 08:36:52;;;;;;;11.07;4.80;;;;;;;28.39;nan;95150.41;5015135;28;20227;-70
2022/07/29 08:39:19;;;;;;;4.10;3.80;;;;;;;28.37;nan;95160.19;5013696;28;20231;-71
2022/07/29 08:41:47;;;;;;;4.20;4.00;;;;;;;28.52;nan;95150.75;5012850;28;20204;-70
2022/07/29 08:44:16;;;;;;;3.83;3.35;;;;;;;28.70;nan;95148.88;5015823;28;20215;-70
2022/07/29 08:46:43;;;;;;;6.45;4.05;;;;;;;28.88;nan;95148.78;5014766;28;20307;-72
2022/07/29 08:49:10;;;;;;;4.07;3.88;;;;;;;29.06;nan;95138.97;5018270;28;20203;-71
2022/07/29 08:51:37;;;;;;;4.28;3.95;;;;;;;28.90;nan;95149.44;5012455;28;20228;-72
2022/07/29 08:54:04;;;;;;;4.20;3.28;;;;;;;29.17;nan;95145.69;5015283;28;20211;-69
2022/07/29 08:56:31;;;;;;;4.05;3.22;;;;;;;28.98;nan;95136.34;5011754;28;20242;-70
2022/07/29 08:58:59;;;;;;;10.82;3.60;;;;;;;28.99;nan;95137.16;5014730;28;20656;-71
2022/07/29 09:01:31;;;;;;;3.50;3.30;;;;;;;29.16;nan;95135.41;5014280;28;20334;-70
2022/07/29 09:04:00;;;;;;;6.13;3.72;;;;;;;29.34;nan;95128.19;5015267;28;20779;-71
2022/07/29 09:06:33;;;;;;;5.00;3.42;;;;;;;29.76;nan;95134.03;5016421;28;20239;-70
2022/07/29 09:09:00;;;;;;;3.40;3.20;;;;;;;29.71;nan;95123.25;5014934;28;20202;-72
2022/07/29 09:11:28;;;;;;;5.35;3.58;;;;;;;29.77;nan;95127.81;5012668;28;20212;-70
2022/07/29 09:13:55;;;;;;;3.63;3.42;;;;;;;30.16;nan;95126.28;5014409;28;20211;-73
2022/07/29 09:16:21;;;;;;;5.25;2.88;;;;;;;30.30;nan;95129.00;5016311;28;20244;-72
2022/07/29 09:18:51;;;;;;;3.95;3.47;;;;;;;29.68;nan;95117.56;5014661;28;20222;-72
2022/07/29 09:24:08;;;;;;;3.50;3.25;;;;;;;30.14;nan;95115.97;5014380;28;20211;-72
2022/07/29 09:26:37;;;;;;;4.03;3.72;;;;;;;30.25;nan;95152.28;5015021;28;21579;-72
2022/07/29 09:29:10;;;;;;;4.47;3.67;;;;;;;30.60;nan;95108.25;5012170;28;20218;-71
2022/07/29 09:31:39;;;;;;;4.47;3.85;;;;;;;30.55;nan;95121.84;5012959;28;20314;-71
2022/07/29 09:34:09;;;;;;;6.28;4.00;;;;;;;30.06;nan;95110.75;5013770;28;20610;-72
2022/07/29 09:36:43;;;;;;;4.03;3.83;;;;;;;30.15;nan;95112.38;5011195;28;20204;-72
2022/07/29 09:39:10;;;;;;;3.72;3.53;;;;;;;30.14;nan;95121.22;5013088;28;20234;-70
2022/07/29 09:41:47;;;;;;;3.22;3.03;;;;;;;29.89;nan;95115.19;5010913;28;20215;-71
2022/07/29 09:44:14;;;;;;;6.32;3.67;;;;;;;29.97;nan;95122.19;5015718;28;20997;-71
2022/07/29 09:46:52;;;;;;;5.60;3.65;;;;;;;30.17;nan;95127.91;5013032;28;20294;-70
2022/07/29 09:49:21;;;;;;;3.72;3.42;;;;;;;29.97;nan;95116.97;5013269;28;20207;-70
2022/07/29 09:51:47;;;;;;;5.40;3.45;;;;;;;29.99;nan;95104.53;5010987;28;20235;-70
2022/07/29 09:54:24;;;;;;;4.32;3.85;;;;;;;30.24;nan;95098.22;5013421;28;20337;-72
2022/07/29 09:56:51;;;;;;;3.30;3.00;;;;;;;29.55;nan;95104.94;5011070;28;20281;-70
2022/07/29 09:59:20;;;;;;;3.88;3.63;;;;;;;29.40;nan;95101.38;5011663;28;20231;-70
2022/07/29 10:01:47;;;;;;;4.97;4.07;;;;;;;29.61;nan;95093.81;5013334;28;20196;-71
2022/07/29 10:04:14;;;;;;;5.13;4.18;;;;;;;29.65;nan;95097.75;5012229;28;20230;-71
2022/07/29 10:07:01;;;;;;;4.07;3.80;;;;;;;30.06;nan;95092.41;5010949;28;20227;-72
2022/07/29 10:09:28;;;;;;;4.22;3.90;;;;;;;30.22;nan;95079.22;5012471;28;20200;-70
2022/07/29 10:12:07;;;;;;;4.30;4.00;;;;;;;30.31;nan;95083.44;5012645;28;20294;-72
2022/07/29 10:14:34;;;;;;;4.18;3.72;;;;;;;30.44;nan;95082.88;5013654;28;20200;-70
2022/07/29 10:17:02;;;;;;;4.35;3.83;;;;;;;30.48;nan;95076.28;5013467;28;20211;-71
2022/07/29 10:19:30;;;;;;;5.03;3.95;;;;;;;30.20;nan;95072.50;5011323;28;20231;-71
2022/07/29 10:21:57;;;;;;;4.15;3.78;;;;;;;30.46;nan;95068.59;5011222;28;20298;-70
2022/07/29 10:24:27;;;;;;;4.50;4.15;;;;;;;30.16;nan;95066.00;5014941;28;20298;-72
2022/07/29 10:26:55;;;;;;;4.20;3.97;;;;;;;30.67;nan;95067.22;5014693;28;20227;-72
2022/07/29 10:29:22;;;;;;;4.15;3.67;;;;;;;31.02;nan;95060.53;5015395;28;20806;-72
2022/07/29 10:31:58;;;;;;;6.15;3.88;;;;;;;31.14;nan;95060.97;5010342;28;20207;-70
2022/07/29 10:34:38;;;;;;;4.40;4.00;;;;;;;30.54;nan;95051.19;5009144;28;21090;-72
2022/07/29 10:37:14;;;;;;;4.60;4.40;;;;;;;30.28;nan;95062.81;5011346;28;20203;-70
2022/07/29 10:39:55;;;;;;;4.20;3.95;;;;;;;30.55;nan;95047.56;5008676;28;20203;-71
2022/07/29 10:42:24;;;;;;;4.72;4.35;;;;;;;31.10;nan;95056.06;5009800;28;20211;-70
2022/07/29 10:44:51;;;;;;;5.32;3.40;;;;;;;30.95;nan;95042.06;5011209;28;20212;-72
2022/07/29 10:47:22;;;;;;;5.47;5.05;;;;;;;30.99;nan;95050.38;5009851;28;20692;-70
2022/07/29 10:49:59;;;;;;;4.38;3.97;;;;;;;30.81;nan;95048.06;5012641;28;20210;-71
2022/07/29 10:52:57;;;;;;;6.43;3.35;;;;;;;30.93;nan;95056.38;5008997;28;20822;-70
2022/07/29 10:55:39;;;;;;;5.18;3.65;;;;;;;30.88;nan;95035.91;5011365;28;20294;-70
2022/07/29 10:58:18;;;;;;;6.47;4.05;;;;;;;31.03;nan;95031.50;5009839;28;20551;-71
2022/07/29 11:00:45;;;;;;;4.20;3.83;;;;;;;30.84;nan;95032.00;5011916;28;20230;-69
2022/07/29 11:03:44;;;;;;;7.70;4.15;;;;;;;30.81;nan;95026.28;5009161;28;20200;-70
2022/07/29 11:06:11;;;;;;;5.00;3.92;;;;;;;30.62;nan;95028.38;5008361;28;20238;-70
2022/07/29 11:08:38;;;;;;;4.00;3.80;;;;;;;30.61;nan;95028.56;5008415;28;20294;-70
2022/07/29 11:11:34;;;;;;;3.45;3.15;;;;;;;30.90;nan;95017.34;5009678;28;20203;-71
2022/07/29 11:14:00;;;;;;;5.50;3.92;;;;;;;30.94;nan;95016.78;5010578;28;21624;-70
2022/07/29 11:17:02;;;;;;;4.82;3.92;;;;;;;30.88;nan;95020.16;5011541;28;20217;-69
2022/07/29 11:19:29;;;;;;;4.75;4.45;;;;;;;30.60;nan;95008.56;5012966;28;20265;-71
2022/07/29 11:21:56;;;;;;;5.80;3.90;;;;;;;30.99;nan;95008.41;5011850;28;20204;-70
2022/07/29 11:24:27;;;;;;;4.35;4.03;;;;;;;30.86;nan;95014.25;5013232;28;20712;-70
2022/07/29 11:27:13;;;;;;;4.35;3.95;;;;;;;30.87;nan;95010.66;5011901;28;20210;-71
2022/07/29 11:29:49;;;;;;;4.10;3.80;;;;;;;30.74;nan;95018.28;5013973;28;20207;-69
2022/07/29 11:32:19;;;;;;;3.78;3.58;;;;;;;30.74;nan;95013.84;5014588;28;20677;-70
2022/07/29 11:34:47;;;;;;;4.40;4.13;;;;;;;30.77;nan;95004.81;5016036;28;20269;-71
2022/07/29 11:37:22;;;;;;;4.20;3.85;;;;;;;30.92;nan;95003.06;5017706;28;21727;-69
2022/07/29 11:40:25;;;;;;;4.38;4.07;;;;;;;31.22;nan;95003.94;5016447;28;20348;-70
2022/07/29 11:42:53;;;;;;;4.68;4.38;;;;;;;30.82;nan;95004.28;5015644;28;20204;-70
2022/07/29 11:45:28;;;;;;;4.40;3.50;;;;;;;30.78;nan;94998.56;5013870;28;20203;-69
2022/07/29 11:47:58;;;;;;;4.45;4.15;;;;;;;30.95;nan;94994.00;5014255;28;20257;-70
2022/07/29 11:50:35;;;;;;;3.70;3.58;;;;;;;31.06;nan;94997.03;5014214;28;20327;-69
2022/07/29 11:53:03;;;;;;;4.35;4.05;;;;;;;31.23;nan;94995.06;5015375;28;20199;-70
2022/07/29 11:55:31;;;;;;;3.83;3.53;;;;;;;31.41;nan;94986.88;5015098;28;20246;-70
2022/07/29 11:58:01;;;;;;;30.25;23.27;;;;;;;31.48;nan;94993.00;5014678;28;20258;-66
2022/07/29 12:00:30;;;;;;;5.80;5.40;;;;;;;31.50;nan;94987.56;5014698;28;20215;-68